sensor_id;sensor_type;location;lat;lon;timestamp;pressure;altitude;pressure_sealevel;temperature;humidity
59240;BME280;45010;53.640;10.578;2024-02-26T00:01:02;99710.34;;;27.69;29.39
59240;BME280;45010;53.640;10.578;2024-02-26T00:04:03;99706.88;;;27.69;29.49
59240;BME280;45010;53.640;10.578;2024-02-26T00:07:03;99717.31;;;27.70;29.06
59240;BME280;45010;53.640;10.578;2024-02-26T00:10:04;99711.94;;;27.70;29.13
59240;BME280;45010;53.640;10.578;2024-02-26T00:13:04;99722.66;;;27.70;29.17
59240;BME280;45010;53.640;10.578;2024-02-26T00:16:05;99700.50;;;27.59;29.01
59240;BME280;45010;53.640;10.578;2024-02-26T00:19:06;99700.75;;;27.63;29.14
59240;BME280;45010;53.640;10.578;2024-02-26T00:22:07;99718.91;;;27.71;28.97
59240;BME280;45010;53.640;10.578;2024-02-26T00:25:07;99713.56;;;27.71;29.32
59240;BME280;45010;53.640;10.578;2024-02-26T00:28:08;99707.13;;;27.67;29.02
59240;BME280;45010;53.640;10.578;2024-02-26T00:31:08;99716.47;;;27.75;29.33
59240;BME280;45010;53.640;10.578;2024-02-26T00:34:08;99719.94;;;27.81;29.30
59240;BME280;45010;53.640;10.578;2024-02-26T00:37:09;99720.72;;;27.81;28.90
59240;BME280;45010;53.640;10.578;2024-02-26T00:40:09;99717.25;;;27.81;28.61
59240;BME280;45010;53.640;10.578;2024-02-26T00:43:10;99715.63;;;27.79;28.70
59240;BME280;45010;53.640;10.578;2024-02-26T00:46:10;99719.97;;;27.75;29.04
59240;BME280;45010;53.640;10.578;2024-02-26T00:49:10;99718.88;;;27.76;28.51
59240;BME280;45010;53.640;10.578;2024-02-26T00:52:11;99722.09;;;27.73;28.90
59240;BME280;45010;53.640;10.578;2024-02-26T00:55:11;99721.59;;;27.71;28.48
59240;BME280;45010;53.640;10.578;2024-02-26T00:58:11;99720.50;;;27.72;28.41
59240;BME280;45010;53.640;10.578;2024-02-26T01:01:12;99724.25;;;27.71;28.90
59240;BME280;45010;53.640;10.578;2024-02-26T01:04:12;99717.84;;;27.67;28.88
59240;BME280;45010;53.640;10.578;2024-02-26T01:07:12;99722.69;;;27.65;28.56
59240;BME280;45010;53.640;10.578;2024-02-26T01:10:13;99725.94;;;27.62;28.80
59240;BME280;45010;53.640;10.578;2024-02-26T01:13:13;99718.44;;;27.59;28.35
59240;BME280;45010;53.640;10.578;2024-02-26T01:16:14;99721.63;;;27.56;28.47
59240;BME280;45010;53.640;10.578;2024-02-26T01:19:14;99722.47;;;27.51;28.96
59240;BME280;45010;53.640;10.578;2024-02-26T01:22:15;99709.69;;;27.37;28.88
59240;BME280;45010;53.640;10.578;2024-02-26T01:25:15;99721.72;;;27.40;28.68
59240;BME280;45010;53.640;10.578;2024-02-26T01:28:16;99724.94;;;27.37;29.12
59240;BME280;45010;53.640;10.578;2024-02-26T01:31:16;99718.53;;;27.33;28.70
59240;BME280;45010;53.640;10.578;2024-02-26T01:34:17;99724.44;;;27.30;29.17
59240;BME280;45010;53.640;10.578;2024-02-26T01:37:18;99721.78;;;27.24;28.82
59240;BME280;45010;53.640;10.578;2024-02-26T01:40:18;99726.09;;;27.20;28.89
59240;BME280;45010;53.640;10.578;2024-02-26T01:43:19;99729.31;;;27.12;28.80
59240;BME280;45010;53.640;10.578;2024-02-26T01:46:20;99733.06;;;27.11;29.05
59240;BME280;45010;53.640;10.578;2024-02-26T01:49:21;99726.66;;;27.07;29.27
59240;BME280;45010;53.640;10.578;2024-02-26T01:52:21;99738.44;;;27.01;28.95
59240;BME280;45010;53.640;10.578;2024-02-26T01:55:23;99727.75;;;26.90;29.31
59240;BME280;45010;53.640;10.578;2024-02-26T01:58:24;99736.34;;;26.92;29.54
59240;BME280;45010;53.640;10.578;2024-02-26T02:01:25;99717.59;;;26.82;29.11
59240;BME280;45010;53.640;10.578;2024-02-26T02:04:27;99736.31;;;26.82;29.25
59240;BME280;45010;53.640;10.578;2024-02-26T02:07:28;99728.03;;;26.78;29.56
59240;BME280;45010;53.640;10.578;2024-02-26T02:10:29;99734.22;;;26.73;29.32
59240;BME280;45010;53.640;10.578;2024-02-26T02:13:29;99736.88;;;26.68;29.70
59240;BME280;45010;53.640;10.578;2024-02-26T02:16:29;99735.81;;;26.64;29.72
59240;BME280;45010;53.640;10.578;2024-02-26T02:19:30;99733.69;;;26.61;29.36
59240;BME280;45010;53.640;10.578;2024-02-26T02:22:30;99731.53;;;26.58;29.87
59240;BME280;45010;53.640;10.578;2024-02-26T02:25:32;99733.16;;;26.54;29.82
59240;BME280;45010;53.640;10.578;2024-02-26T02:28:32;99732.63;;;26.52;29.52
59240;BME280;45010;53.640;10.578;2024-02-26T02:31:33;99724.88;;;26.45;29.83
59240;BME280;45010;53.640;10.578;2024-02-26T02:34:33;99727.81;;;26.43;29.51
59240;BME280;45010;53.640;10.578;2024-02-26T02:37:34;99721.38;;;26.34;29.75
59240;BME280;45010;53.640;10.578;2024-02-26T02:40:34;99717.13;;;26.28;29.90
59240;BME280;45010;53.640;10.578;2024-02-26T02:43:35;99733.97;;;26.34;29.70
59240;BME280;45010;53.640;10.578;2024-02-26T02:46:35;99732.09;;;26.24;29.74
59240;BME280;45010;53.640;10.578;2024-02-26T02:49:35;99738.50;;;26.28;30.08
59240;BME280;45010;53.640;10.578;2024-02-26T02:52:36;99737.97;;;26.26;30.16
59240;BME280;45010;53.640;10.578;2024-02-26T02:55:36;99740.13;;;26.24;29.94
59240;BME280;45010;53.640;10.578;2024-02-26T02:58:36;99730.47;;;26.17;29.68
59240;BME280;45010;53.640;10.578;2024-02-26T03:01:37;99738.47;;;26.17;30.13
59240;BME280;45010;53.640;10.578;2024-02-26T03:04:37;99745.94;;;26.15;30.26
59240;BME280;45010;53.640;10.578;2024-02-26T03:07:37;99735.53;;;26.09;29.85
59240;BME280;45010;53.640;10.578;2024-02-26T03:10:38;99751.03;;;26.12;30.03
59240;BME280;45010;53.640;10.578;2024-02-26T03:13:38;99741.66;;;26.09;30.13
59240;BME280;45010;53.640;10.578;2024-02-26T03:16:38;99745.94;;;26.05;30.27
59240;BME280;45010;53.640;10.578;2024-02-26T03:19:39;99724.00;;;25.98;29.96
59240;BME280;45010;53.640;10.578;2024-02-26T03:22:39;99742.72;;;26.03;30.27
59240;BME280;45010;53.640;10.578;2024-02-26T03:25:42;99739.53;;;26.01;29.96
59240;BME280;45010;53.640;10.578;2024-02-26T03:28:42;99744.34;;;25.99;30.35
59240;BME280;45010;53.640;10.578;2024-02-26T03:31:42;99749.13;;;25.97;30.13
59240;BME280;45010;53.640;10.578;2024-02-26T03:34:43;99745.94;;;25.95;30.40
59240;BME280;45010;53.640;10.578;2024-02-26T03:37:43;99757.69;;;25.94;30.56
59240;BME280;45010;53.640;10.578;2024-02-26T03:40:45;99767.81;;;25.91;30.43
59240;BME280;45010;53.640;10.578;2024-02-26T03:43:46;99761.41;;;25.87;30.06
59240;BME280;45010;53.640;10.578;2024-02-26T03:46:46;99764.63;;;25.89;30.32
59240;BME280;45010;53.640;10.578;2024-02-26T03:49:47;99737.88;;;25.69;30.20
59240;BME280;45010;53.640;10.578;2024-02-26T03:52:47;99772.09;;;25.87;30.41
59240;BME280;45010;53.640;10.578;2024-02-26T03:55:47;99774.22;;;25.85;30.45
59240;BME280;45010;53.640;10.578;2024-02-26T03:58:48;99785.97;;;25.84;30.31
59240;BME280;45010;53.640;10.578;2024-02-26T04:01:48;99787.03;;;25.83;30.46
59240;BME280;45010;53.640;10.578;2024-02-26T04:04:49;99791.56;;;25.83;30.36
59240;BME280;45010;53.640;10.578;2024-02-26T04:07:49;99798.22;;;25.80;30.28
59240;BME280;45010;53.640;10.578;2024-02-26T04:10:49;99800.91;;;25.80;30.36
59240;BME280;45010;53.640;10.578;2024-02-26T04:13:50;99801.97;;;25.79;30.58
59240;BME280;45010;53.640;10.578;2024-02-26T04:16:52;99805.72;;;25.78;30.28
59240;BME280;45010;53.640;10.578;2024-02-26T04:19:54;99812.13;;;25.77;30.25
59240;BME280;45010;53.640;10.578;2024-02-26T04:22:54;99824.94;;;25.75;30.43
59240;BME280;45010;53.640;10.578;2024-02-26T04:25:55;99820.63;;;25.74;30.30
59240;BME280;45010;53.640;10.578;2024-02-26T04:28:55;99821.97;;;25.71;30.26
59240;BME280;45010;53.640;10.578;2024-02-26T04:31:55;99824.38;;;25.73;30.65
59240;BME280;45010;53.640;10.578;2024-02-26T04:34:56;99831.84;;;25.71;30.37
59240;BME280;45010;53.640;10.578;2024-02-26T04:37:56;99837.19;;;25.71;30.55
59240;BME280;45010;53.640;10.578;2024-02-26T04:40:56;99852.69;;;25.69;30.60
59240;BME280;45010;53.640;10.578;2024-02-26T04:43:57;99849.44;;;25.61;30.67
59240;BME280;45010;53.640;10.578;2024-02-26T04:46:57;99874.31;;;25.67;30.45
59240;BME280;45010;53.640;10.578;2024-02-26T04:49:57;99857.72;;;25.65;30.66
59240;BME280;45010;53.640;10.578;2024-02-26T04:52:58;99868.69;;;25.63;30.42
59240;BME280;45010;53.640;10.578;2024-02-26T04:55:58;99857.88;;;25.48;30.54
59240;BME280;45010;53.640;10.578;2024-02-26T04:58:58;99873.75;;;25.60;30.49
59240;BME280;45010;53.640;10.578;2024-02-26T05:01:59;99873.44;;;25.56;30.84
59240;BME280;45010;53.640;10.578;2024-02-26T05:04:59;99884.09;;;25.56;30.76
59240;BME280;45010;53.640;10.578;2024-02-26T05:07:59;99882.78;;;25.54;30.72
59240;BME280;45010;53.640;10.578;2024-02-26T05:10:59;99896.59;;;25.50;31.08
59240;BME280;45010;53.640;10.578;2024-02-26T05:14:00;99888.84;;;25.49;30.87
59240;BME280;45010;53.640;10.578;2024-02-26T05:17:01;99884.03;;;25.46;31.82
59240;BME280;45010;53.640;10.578;2024-02-26T05:20:01;99885.34;;;25.43;30.94
59240;BME280;45010;53.640;10.578;2024-02-26T05:23:02;99860.16;;;25.23;31.10
59240;BME280;45010;53.640;10.578;2024-02-26T05:26:03;99881.34;;;25.41;31.26
59240;BME280;45010;53.640;10.578;2024-02-26T05:29:04;99858.50;;;25.22;31.24
59240;BME280;45010;53.640;10.578;2024-02-26T05:32:06;99885.53;;;25.31;30.86
59240;BME280;45010;53.640;10.578;2024-02-26T05:35:06;99887.69;;;25.34;30.96
59240;BME280;45010;53.640;10.578;2024-02-26T05:38:07;99896.78;;;25.33;31.13
59240;BME280;45010;53.640;10.578;2024-02-26T05:41:07;99900.50;;;25.32;31.15
59240;BME280;45010;53.640;10.578;2024-02-26T05:44:08;99899.69;;;25.32;31.35
59240;BME280;45010;53.640;10.578;2024-02-26T05:47:10;99897.25;;;25.30;31.30
59240;BME280;45010;53.640;10.578;2024-02-26T05:50:10;99892.19;;;25.29;31.36
59240;BME280;45010;53.640;10.578;2024-02-26T05:53:11;99903.91;;;25.28;31.28
59240;BME280;45010;53.640;10.578;2024-02-26T05:56:11;99889.47;;;25.18;31.32
59240;BME280;45010;53.640;10.578;2024-02-26T05:59:12;99916.47;;;25.27;31.35
59240;BME280;45010;53.640;10.578;2024-02-26T06:02:12;99916.47;;;25.27;31.50
59240;BME280;45010;53.640;10.578;2024-02-26T06:05:12;99925.53;;;25.26;31.31
59240;BME280;45010;53.640;10.578;2024-02-26T06:08:13;99935.66;;;25.24;31.41
59240;BME280;45010;53.640;10.578;2024-02-26T06:11:13;99932.19;;;25.23;31.41
59240;BME280;45010;53.640;10.578;2024-02-26T06:14:14;99931.38;;;25.23;31.34
59240;BME280;45010;53.640;10.578;2024-02-26T06:17:18;99928.97;;;25.21;31.18
59240;BME280;45010;53.640;10.578;2024-02-26T06:20:18;99942.06;;;25.23;31.73
59240;BME280;45010;53.640;10.578;2024-02-26T06:23:18;99935.06;;;25.17;31.54
59240;BME280;45010;53.640;10.578;2024-02-26T06:26:19;99946.84;;;25.21;31.42
59240;BME280;45010;53.640;10.578;2024-02-26T06:29:19;99952.19;;;25.21;31.74
59240;BME280;45010;53.640;10.578;2024-02-26T06:32:19;99961.22;;;25.20;31.79
59240;BME280;45010;53.640;10.578;2024-02-26T06:35:20;99964.97;;;25.19;31.48
59240;BME280;45010;53.640;10.578;2024-02-26T06:38:20;99966.84;;;25.18;31.08
59240;BME280;45010;53.640;10.578;2024-02-26T06:41:20;99965.47;;;25.16;31.53
59240;BME280;45010;53.640;10.578;2024-02-26T06:44:21;99966.03;;;25.18;31.48
59240;BME280;45010;53.640;10.578;2024-02-26T06:47:21;99964.41;;;25.17;31.58
59240;BME280;45010;53.640;10.578;2024-02-26T06:50:22;99939.22;;;25.02;31.44
59240;BME280;45010;53.640;10.578;2024-02-26T06:53:22;99965.47;;;25.16;31.64
59240;BME280;45010;53.640;10.578;2024-02-26T06:56:22;99969.75;;;25.17;31.36
59240;BME280;45010;53.640;10.578;2024-02-26T06:59:23;99974.28;;;25.16;31.69
59240;BME280;45010;53.640;10.578;2024-02-26T07:02:24;99970.81;;;25.16;31.76
59240;BME280;45010;53.640;10.578;2024-02-26T07:05:24;99976.94;;;25.16;31.69
59240;BME280;45010;53.640;10.578;2024-02-26T07:08:25;99983.34;;;25.15;31.81
59240;BME280;45010;53.640;10.578;2024-02-26T07:11:25;99990.56;;;25.15;31.77
59240;BME280;45010;53.640;10.578;2024-02-26T07:14:25;99988.13;;;25.13;31.52
59240;BME280;45010;53.640;10.578;2024-02-26T07:17:25;99989.75;;;25.14;31.65
59240;BME280;45010;53.640;10.578;2024-02-26T07:20:26;99991.59;;;25.14;32.08
59240;BME280;45010;53.640;10.578;2024-02-26T07:23:26;99980.38;;;25.11;31.79
59240;BME280;45010;53.640;10.578;2024-02-26T07:26:26;99984.09;;;25.10;31.96
59240;BME280;45010;53.640;10.578;2024-02-26T07:29:27;99993.72;;;25.11;32.09
59240;BME280;45010;53.640;10.578;2024-02-26T07:32:27;100003.63;;;25.16;32.51
59240;BME280;45010;53.640;10.578;2024-02-26T07:35:27;100002.84;;;25.16;32.51
59240;BME280;45010;53.640;10.578;2024-02-26T07:38:28;100002.31;;;25.19;32.82
59240;BME280;45010;53.640;10.578;2024-02-26T07:41:28;99990.84;;;25.18;32.67
59240;BME280;45010;53.640;10.578;2024-02-26T07:44:29;100003.22;;;25.30;32.76
59240;BME280;45010;53.640;10.578;2024-02-26T07:47:29;100013.69;;;25.36;32.68
59240;BME280;45010;53.640;10.578;2024-02-26T07:50:29;100015.91;;;25.45;32.38
59240;BME280;45010;53.640;10.578;2024-02-26T07:53:30;100018.13;;;25.53;32.75
59240;BME280;45010;53.640;10.578;2024-02-26T07:56:31;100023.56;;;25.63;33.00
59240;BME280;45010;53.640;10.578;2024-02-26T07:59:31;100017.69;;;25.67;32.98
59240;BME280;45010;53.640;10.578;2024-02-26T08:02:32;100026.59;;;25.77;32.80
59240;BME280;45010;53.640;10.578;2024-02-26T08:05:32;100036.78;;;25.86;32.16
59240;BME280;45010;53.640;10.578;2024-02-26T08:08:32;100049.66;;;25.94;31.99
59240;BME280;45010;53.640;10.578;2024-02-26T08:11:33;100056.13;;;25.98;31.76
59240;BME280;45010;53.640;10.578;2024-02-26T08:14:33;100058.56;;;26.05;31.71
59240;BME280;45010;53.640;10.578;2024-02-26T08:17:33;100042.78;;;26.03;31.52
59240;BME280;45010;53.640;10.578;2024-02-26T08:20:34;100058.06;;;26.13;31.81
59240;BME280;45010;53.640;10.578;2024-02-26T08:23:34;100054.38;;;26.19;31.51
59240;BME280;45010;53.640;10.578;2024-02-26T08:26:34;100049.09;;;26.25;31.31
59240;BME280;45010;53.640;10.578;2024-02-26T08:29:35;100046.94;;;26.27;31.48
59240;BME280;45010;53.640;10.578;2024-02-26T08:32:35;100058.22;;;26.34;31.07
59240;BME280;45010;53.640;10.578;2024-02-26T08:35:36;100054.03;;;26.49;30.88
59240;BME280;45010;53.640;10.578;2024-02-26T08:38:36;100055.59;;;26.44;31.19
59240;BME280;45010;53.640;10.578;2024-02-26T08:41:37;100060.16;;;26.49;31.36
59240;BME280;45010;53.640;10.578;2024-02-26T08:44:37;100058.84;;;26.52;31.33
59240;BME280;45010;53.640;10.578;2024-02-26T08:47:37;100061.56;;;26.62;31.12
59240;BME280;45010;53.640;10.578;2024-02-26T08:50:38;100062.66;;;26.66;31.01
59240;BME280;45010;53.640;10.578;2024-02-26T08:53:38;100067.22;;;26.71;30.67
59240;BME280;45010;53.640;10.578;2024-02-26T08:56:39;100068.31;;;26.75;30.46
59240;BME280;45010;53.640;10.578;2024-02-26T08:59:39;100072.31;;;26.78;30.50
59240;BME280;45010;53.640;10.578;2024-02-26T09:02:39;100078.75;;;26.82;30.38
59240;BME280;45010;53.640;10.578;2024-02-26T09:05:40;100081.97;;;26.84;29.92
59240;BME280;45010;53.640;10.578;2024-02-26T09:08:40;100081.44;;;26.87;29.95
59240;BME280;45010;53.640;10.578;2024-02-26T09:11:40;100080.94;;;26.90;29.81
59240;BME280;45010;53.640;10.578;2024-02-26T09:14:41;100079.31;;;26.89;30.15
59240;BME280;45010;53.640;10.578;2024-02-26T09:17:42;100073.69;;;26.91;29.74
59240;BME280;45010;53.640;10.578;2024-02-26T09:20:43;100082.56;;;26.91;29.73
59240;BME280;45010;53.640;10.578;2024-02-26T09:23:43;100097.00;;;26.90;29.78
59240;BME280;45010;53.640;10.578;2024-02-26T09:26:44;100081.97;;;26.84;29.92
59240;BME280;45010;53.640;10.578;2024-02-26T09:29:44;100086.03;;;26.92;30.15
59240;BME280;45010;53.640;10.578;2024-02-26T09:32:46;100095.69;;;26.93;30.20
59240;BME280;45010;53.640;10.578;2024-02-26T09:35:47;100093.28;;;26.91;29.71
59240;BME280;45010;53.640;10.578;2024-02-26T09:38:48;100097.78;;;26.91;29.65
59240;BME280;45010;53.640;10.578;2024-02-26T09:41:48;100105.00;;;26.90;29.65
59240;BME280;45010;53.640;10.578;2024-02-26T09:44:51;100107.69;;;26.90;29.98
59240;BME280;45010;53.640;10.578;2024-02-26T09:47:55;100105.00;;;26.85;30.00
59240;BME280;45010;53.640;10.578;2024-02-26T09:50:55;100089.44;;;26.71;30.04
59240;BME280;45010;53.640;10.578;2024-02-26T09:53:59;100114.38;;;26.88;29.95
59240;BME280;45010;53.640;10.578;2024-02-26T09:57:02;100102.81;;;26.82;30.12
59240;BME280;45010;53.640;10.578;2024-02-26T10:00:08;100117.28;;;26.86;29.75
59240;BME280;45010;53.640;10.578;2024-02-26T10:03:13;100122.13;;;26.84;29.89
59240;BME280;45010;53.640;10.578;2024-02-26T10:06:15;100122.13;;;26.84;29.95
59240;BME280;45010;53.640;10.578;2024-02-26T10:09:16;100116.75;;;26.79;29.86
59240;BME280;45010;53.640;10.578;2024-02-26T10:12:17;100120.47;;;26.78;29.76
59240;BME280;45010;53.640;10.578;2024-02-26T10:15:18;100123.97;;;26.83;30.07
59240;BME280;45010;53.640;10.578;2024-02-26T10:18:18;100135.50;;;26.84;30.09
59240;BME280;45010;53.640;10.578;2024-02-26T10:21:20;100120.47;;;26.78;30.04
59240;BME280;45010;53.640;10.578;2024-02-26T10:24:21;100132.25;;;26.82;30.12
59240;BME280;45010;53.640;10.578;2024-02-26T10:27:21;100142.16;;;26.81;30.10
59240;BME280;45010;53.640;10.578;2024-02-26T10:30:22;100129.56;;;26.77;30.17
59240;BME280;45010;53.640;10.578;2024-02-26T10:33:22;100139.75;;;26.80;30.24
59240;BME280;45010;53.640;10.578;2024-02-26T10:36:25;100144.00;;;26.76;30.05
59240;BME280;45010;53.640;10.578;2024-02-26T10:39:26;100155.78;;;26.80;29.66
59240;BME280;45010;53.640;10.578;2024-02-26T10:42:26;100155.78;;;26.80;29.92
59240;BME280;45010;53.640;10.578;2024-02-26T10:45:26;100154.19;;;26.79;29.97
59240;BME280;45010;53.640;10.578;2024-02-26T10:48:27;100158.72;;;26.78;29.54
59240;BME280;45010;53.640;10.578;2024-02-26T10:51:28;100166.50;;;26.80;30.31
59240;BME280;45010;53.640;10.578;2024-02-26T10:54:29;100167.31;;;26.80;30.64
59240;BME280;45010;53.640;10.578;2024-02-26T10:57:34;100169.72;;;26.82;30.69
59240;BME280;45010;53.640;10.578;2024-02-26T11:00:38;100168.63;;;26.78;30.92
59240;BME280;45010;53.640;10.578;2024-02-26T11:03:40;100175.09;;;26.87;30.94
59240;BME280;45010;53.640;10.578;2024-02-26T11:06:41;100173.53;;;26.91;30.81
59240;BME280;45010;53.640;10.578;2024-02-26T11:09:41;100169.28;;;26.95;30.44
59240;BME280;45010;53.640;10.578;2024-02-26T11:12:44;100167.69;;;26.99;30.53
59240;BME280;45010;53.640;10.578;2024-02-26T11:15:46;100154.56;;;26.98;30.65
59240;BME280;45010;53.640;10.578;2024-02-26T11:18:51;100158.59;;;27.06;30.49
59240;BME280;45010;53.640;10.578;2024-02-26T11:21:52;100161.31;;;27.11;30.06
59240;BME280;45010;53.640;10.578;2024-02-26T11:24:53;100171.22;;;27.16;30.02
59240;BME280;45010;53.640;10.578;2024-02-26T11:27:58;100171.50;;;27.19;29.90
59240;BME280;45010;53.640;10.578;2024-02-26T11:31:02;100164.56;;;27.23;29.76
59240;BME280;45010;53.640;10.578;2024-02-26T11:34:04;100164.31;;;27.25;29.85
59240;BME280;45010;53.640;10.578;2024-02-26T11:37:11;100167.25;;;27.29;29.67
59240;BME280;45010;53.640;10.578;2024-02-26T11:40:11;100172.09;;;27.32;29.62
59240;BME280;45010;53.640;10.578;2024-02-26T11:43:12;100168.88;;;27.35;29.97
59240;BME280;45010;53.640;10.578;2024-02-26T11:46:26;100172.66;;;27.39;29.53
59240;BME280;45010;53.640;10.578;2024-02-26T11:52:27;100186.06;;;27.44;29.41
59240;BME280;45010;53.640;10.578;2024-02-26T11:55:34;100182.84;;;27.47;29.68
59240;BME280;45010;53.640;10.578;2024-02-26T11:58:34;100175.84;;;27.41;29.69
59240;BME280;45010;53.640;10.578;2024-02-26T12:01:48;100187.66;;;27.50;29.71
59240;BME280;45010;53.640;10.578;2024-02-26T12:04:48;100193.56;;;27.52;29.44
59240;BME280;45010;53.640;10.578;2024-02-26T12:07:53;100187.94;;;27.49;29.92
59240;BME280;45010;53.640;10.578;2024-02-26T12:10:54;100200.00;;;27.57;29.87
59240;BME280;45010;53.640;10.578;2024-02-26T12:13:56;100201.63;;;27.58;29.41
59240;BME280;45010;53.640;10.578;2024-02-26T12:16:57;100204.84;;;27.60;29.52
59240;BME280;45010;53.640;10.578;2024-02-26T12:20:09;100204.84;;;27.60;29.31
59240;BME280;45010;53.640;10.578;2024-02-26T12:23:15;100189.25;;;27.46;29.71
59240;BME280;45010;53.640;10.578;2024-02-26T12:26:16;100212.38;;;27.63;29.27
59240;BME280;45010;53.640;10.578;2024-02-26T12:29:16;100212.91;;;27.65;29.41
59240;BME280;45010;53.640;10.578;2024-02-26T12:32:17;100216.09;;;27.67;29.72
59240;BME280;45010;53.640;10.578;2024-02-26T12:35:17;100206.47;;;27.61;29.49
59240;BME280;45010;53.640;10.578;2024-02-26T12:38:18;100220.13;;;27.70;29.42
59240;BME280;45010;53.640;10.578;2024-02-26T12:41:18;100214.50;;;27.66;29.44
59240;BME280;45010;53.640;10.578;2024-02-26T12:44:26;100223.91;;;27.74;29.30
59240;BME280;45010;53.640;10.578;2024-02-26T12:47:26;100227.41;;;27.74;29.15
59240;BME280;45010;53.640;10.578;2024-02-26T12:50:26;100231.44;;;27.77;29.15
59240;BME280;45010;53.640;10.578;2024-02-26T12:53:27;100230.63;;;27.76;29.50
59240;BME280;45010;53.640;10.578;2024-02-26T12:56:27;100237.56;;;27.77;29.74
59240;BME280;45010;53.640;10.578;2024-02-26T12:59:29;100243.47;;;27.79;29.56
59240;BME280;45010;53.640;10.578;2024-02-26T13:02:31;100224.69;;;27.64;29.06
59240;BME280;45010;53.640;10.578;2024-02-26T13:05:32;100253.41;;;27.79;29.35
59240;BME280;45010;53.640;10.578;2024-02-26T13:08:33;100256.88;;;27.79;29.63
59240;BME280;45010;53.640;10.578;2024-02-26T13:11:34;100267.56;;;27.79;29.68
59240;BME280;45010;53.640;10.578;2024-02-26T13:14:34;100256.31;;;27.72;29.54
59240;BME280;45010;53.640;10.578;2024-02-26T13:17:35;100265.72;;;27.85;29.83
59240;BME280;45010;53.640;10.578;2024-02-26T13:20:36;100269.19;;;27.86;29.51
59240;BME280;45010;53.640;10.578;2024-02-26T13:23:40;100260.09;;;27.82;29.39
59240;BME280;45010;53.640;10.578;2024-02-26T13:26:40;100280.47;;;27.88;29.27
59240;BME280;45010;53.640;10.578;2024-02-26T13:29:41;100283.94;;;27.88;29.25
59240;BME280;45010;53.640;10.578;2024-02-26T13:32:41;100285.84;;;27.88;29.36
59240;BME280;45010;53.640;10.578;2024-02-26T13:35:43;100284.22;;;27.87;28.88
59240;BME280;45010;53.640;10.578;2024-02-26T13:38:54;100287.44;;;27.89;29.35
59240;BME280;45010;53.640;10.578;2024-02-26T13:41:55;100280.47;;;27.88;29.08
59240;BME280;45010;53.640;10.578;2024-02-26T13:44:55;100285.28;;;27.91;29.15
59240;BME280;45010;53.640;10.578;2024-02-26T13:48:01;100273.47;;;27.76;28.81
59240;BME280;45010;53.640;10.578;2024-02-26T13:51:02;100289.06;;;27.90;28.80
59240;BME280;45010;53.640;10.578;2024-02-26T13:54:03;100287.97;;;27.86;28.76
59240;BME280;45010;53.640;10.578;2024-02-26T13:57:04;100291.47;;;27.91;29.06
59240;BME280;45010;53.640;10.578;2024-02-26T14:00:04;100300.59;;;27.90;28.80
59240;BME280;45010;53.640;10.578;2024-02-26T14:03:06;100310.50;;;27.90;28.83
59240;BME280;45010;53.640;10.578;2024-02-26T14:06:06;100309.97;;;27.93;28.91
59240;BME280;45010;53.640;10.578;2024-02-26T14:09:07;100304.63;;;27.93;28.70
59240;BME280;45010;53.640;10.578;2024-02-26T14:12:07;100310.75;;;27.93;28.85
59240;BME280;45010;53.640;10.578;2024-02-26T14:15:09;100306.22;;;27.94;28.71
59240;BME280;45010;53.640;10.578;2024-02-26T14:18:10;100311.03;;;27.87;28.52
59240;BME280;45010;53.640;10.578;2024-02-26T14:21:10;100323.91;;;27.95;28.20
59240;BME280;45010;53.640;10.578;2024-02-26T14:24:10;100323.91;;;27.95;28.68
59240;BME280;45010;53.640;10.578;2024-02-26T14:27:12;100339.16;;;27.95;28.98
59240;BME280;45010;53.640;10.578;2024-02-26T14:30:16;100299.19;;;27.77;28.95
59240;BME280;45010;53.640;10.578;2024-02-26T14:33:16;100333.03;;;27.94;28.76
59240;BME280;45010;53.640;10.578;2024-02-26T14:36:16;100336.78;;;27.93;28.79
59240;BME280;45010;53.640;10.578;2024-02-26T14:39:16;100342.13;;;27.93;28.64
59240;BME280;45010;53.640;10.578;2024-02-26T14:42:17;100346.44;;;27.94;28.96
59240;BME280;45010;53.640;10.578;2024-02-26T14:45:17;100348.28;;;27.93;28.68
59240;BME280;45010;53.640;10.578;2024-02-26T14:48:18;100348.28;;;27.93;28.63
59240;BME280;45010;53.640;10.578;2024-02-26T14:51:18;100352.84;;;27.93;28.83
59240;BME280;45010;53.640;10.578;2024-02-26T14:54:19;100353.66;;;27.93;28.56
59240;BME280;45010;53.640;10.578;2024-02-26T14:57:19;100351.78;;;27.94;28.65
59240;BME280;45010;53.640;10.578;2024-02-26T15:00:20;100348.00;;;27.90;28.76
59240;BME280;45010;53.640;10.578;2024-02-26T15:03:20;100363.03;;;27.96;28.52
59240;BME280;45010;53.640;10.578;2024-02-26T15:06:20;100363.84;;;27.97;28.77
59240;BME280;45010;53.640;10.578;2024-02-26T15:09:21;100355.78;;;27.91;28.66
59240;BME280;45010;53.640;10.578;2024-02-26T15:12:21;100371.06;;;27.96;28.62
59240;BME280;45010;53.640;10.578;2024-02-26T15:15:22;100376.44;;;27.96;28.46
59240;BME280;45010;53.640;10.578;2024-02-26T15:18:22;100380.72;;;27.97;28.65
59240;BME280;45010;53.640;10.578;2024-02-26T15:21:22;100379.13;;;27.96;28.41
59240;BME280;45010;53.640;10.578;2024-02-26T15:24:23;100390.09;;;27.95;28.12
59240;BME280;45010;53.640;10.578;2024-02-26T15:27:23;100393.06;;;27.93;28.33
59240;BME280;45010;53.640;10.578;2024-02-26T15:30:23;100396.53;;;27.93;29.01
59240;BME280;45010;53.640;10.578;2024-02-26T15:33:24;100400.25;;;27.87;28.66
59240;BME280;45010;53.640;10.578;2024-02-26T15:36:27;100402.44;;;27.90;28.98
59240;BME280;45010;53.640;10.578;2024-02-26T15:39:27;100403.78;;;27.93;28.57
59240;BME280;45010;53.640;10.578;2024-02-26T15:42:27;100397.31;;;27.89;28.46